sensor_id;sensor_type;location;lat;lon;timestamp;P1;durP1;ratioP1;P2;durP2;ratioP2
3779;SDS011;1905;52.482;9.802;2023-11-22T00:00:29;10.60;;;3.10;;
3779;SDS011;1905;52.482;9.802;2023-11-22T00:02:57;8.27;;;2.83;;
3779;SDS011;1905;52.482;9.802;2023-11-22T00:05:25;6.90;;;2.60;;
3779;SDS011;1905;52.482;9.802;2023-11-22T00:07:53;6.67;;;2.77;;
3779;SDS011;1905;52.482;9.802;2023-11-22T00:10:21;6.73;;;2.70;;
3779;SDS011;1905;52.482;9.802;2023-11-22T00:12:51;17.80;;;3.17;;
3779;SDS011;1905;52.482;9.802;2023-11-22T00:15:18;8.10;;;2.77;;
3779;SDS011;1905;52.482;9.802;2023-11-22T00:17:46;6.97;;;2.50;;
3779;SDS011;1905;52.482;9.802;2023-11-22T00:20:14;9.10;;;3.07;;
3779;SDS011;1905;52.482;9.802;2023-11-22T00:22:44;10.00;;;2.63;;
3779;SDS011;1905;52.482;9.802;2023-11-22T00:25:12;11.60;;;3.00;;
3779;SDS011;1905;52.482;9.802;2023-11-22T00:27:40;8.17;;;2.77;;
3779;SDS011;1905;52.482;9.802;2023-11-22T00:30:11;6.90;;;2.40;;
3779;SDS011;1905;52.482;9.802;2023-11-22T00:32:39;7.27;;;2.40;;
3779;SDS011;1905;52.482;9.802;2023-11-22T00:35:07;7.50;;;2.70;;
3779;SDS011;1905;52.482;9.802;2023-11-22T00:37:35;10.63;;;3.33;;
3779;SDS011;1905;52.482;9.802;2023-11-22T00:40:03;10.87;;;3.10;;
3779;SDS011;1905;52.482;9.802;2023-11-22T00:42:37;9.50;;;3.13;;
3779;SDS011;1905;52.482;9.802;2023-11-22T00:45:07;12.43;;;3.50;;
3779;SDS011;1905;52.482;9.802;2023-11-22T00:47:37;9.67;;;3.47;;
3779;SDS011;1905;52.482;9.802;2023-11-22T00:50:06;16.37;;;4.30;;
3779;SDS011;1905;52.482;9.802;2023-11-22T00:52:34;10.60;;;3.63;;
3779;SDS011;1905;52.482;9.802;2023-11-22T00:55:02;15.27;;;4.37;;
3779;SDS011;1905;52.482;9.802;2023-11-22T00:57:31;10.63;;;3.23;;
3779;SDS011;1905;52.482;9.802;2023-11-22T00:59:59;13.03;;;3.40;;
3779;SDS011;1905;52.482;9.802;2023-11-22T01:02:26;9.37;;;3.33;;
3779;SDS011;1905;52.482;9.802;2023-11-22T01:04:56;10.63;;;3.30;;
3779;SDS011;1905;52.482;9.802;2023-11-22T01:07:23;10.93;;;4.83;;
3779;SDS011;1905;52.482;9.802;2023-11-22T01:09:51;7.40;;;2.80;;
3779;SDS011;1905;52.482;9.802;2023-11-22T01:12:19;8.87;;;3.30;;
3779;SDS011;1905;52.482;9.802;2023-11-22T01:14:47;13.40;;;3.00;;
3779;SDS011;1905;52.482;9.802;2023-11-22T01:17:14;7.33;;;2.40;;
3779;SDS011;1905;52.482;9.802;2023-11-22T01:19:42;8.60;;;2.80;;
3779;SDS011;1905;52.482;9.802;2023-11-22T01:22:11;7.67;;;3.00;;
3779;SDS011;1905;52.482;9.802;2023-11-22T01:24:39;7.80;;;2.33;;
3779;SDS011;1905;52.482;9.802;2023-11-22T01:27:07;7.93;;;3.30;;
3779;SDS011;1905;52.482;9.802;2023-11-22T01:29:36;8.20;;;2.67;;
3779;SDS011;1905;52.482;9.802;2023-11-22T01:32:04;8.13;;;2.87;;
3779;SDS011;1905;52.482;9.802;2023-11-22T01:34:32;10.13;;;2.80;;
3779;SDS011;1905;52.482;9.802;2023-11-22T01:37:00;9.73;;;2.37;;
3779;SDS011;1905;52.482;9.802;2023-11-22T01:39:30;7.93;;;2.40;;
3779;SDS011;1905;52.482;9.802;2023-11-22T01:41:58;7.13;;;2.60;;
3779;SDS011;1905;52.482;9.802;2023-11-22T01:44:26;9.73;;;2.57;;
3779;SDS011;1905;52.482;9.802;2023-11-22T01:46:54;7.33;;;2.63;;
3779;SDS011;1905;52.482;9.802;2023-11-22T01:49:22;9.17;;;2.87;;
3779;SDS011;1905;52.482;9.802;2023-11-22T01:51:51;13.23;;;2.97;;
3779;SDS011;1905;52.482;9.802;2023-11-22T01:54:18;8.60;;;3.10;;
3779;SDS011;1905;52.482;9.802;2023-11-22T01:56:51;8.67;;;2.67;;
3779;SDS011;1905;52.482;9.802;2023-11-22T01:59:18;8.10;;;2.83;;
3779;SDS011;1905;52.482;9.802;2023-11-22T02:01:47;7.73;;;2.83;;
3779;SDS011;1905;52.482;9.802;2023-11-22T02:04:16;7.70;;;2.63;;
3779;SDS011;1905;52.482;9.802;2023-11-22T02:06:44;6.80;;;2.50;;
3779;SDS011;1905;52.482;9.802;2023-11-22T02:09:12;10.47;;;3.27;;
3779;SDS011;1905;52.482;9.802;2023-11-22T02:11:42;8.17;;;2.53;;
3779;SDS011;1905;52.482;9.802;2023-11-22T02:14:13;10.80;;;3.07;;
3779;SDS011;1905;52.482;9.802;2023-11-22T02:16:41;7.10;;;2.70;;
3779;SDS011;1905;52.482;9.802;2023-11-22T02:19:12;10.43;;;2.80;;
3779;SDS011;1905;52.482;9.802;2023-11-22T02:21:42;8.40;;;3.23;;
3779;SDS011;1905;52.482;9.802;2023-11-22T02:24:13;7.73;;;2.77;;
3779;SDS011;1905;52.482;9.802;2023-11-22T02:26:43;7.57;;;2.87;;
3779;SDS011;1905;52.482;9.802;2023-11-22T02:29:13;8.00;;;3.17;;
3779;SDS011;1905;52.482;9.802;2023-11-22T02:31:42;9.90;;;2.87;;
3779;SDS011;1905;52.482;9.802;2023-11-22T02:34:10;6.93;;;2.33;;
3779;SDS011;1905;52.482;9.802;2023-11-22T02:36:38;12.20;;;3.57;;
3779;SDS011;1905;52.482;9.802;2023-11-22T02:39:08;7.30;;;2.80;;
3779;SDS011;1905;52.482;9.802;2023-11-22T02:41:37;8.53;;;3.07;;
3779;SDS011;1905;52.482;9.802;2023-11-22T02:44:04;9.20;;;3.37;;
3779;SDS011;1905;52.482;9.802;2023-11-22T02:46:33;6.63;;;2.40;;
3779;SDS011;1905;52.482;9.802;2023-11-22T02:49:01;11.60;;;4.03;;
3779;SDS011;1905;52.482;9.802;2023-11-22T02:51:30;7.73;;;3.20;;
3779;SDS011;1905;52.482;9.802;2023-11-22T02:53:58;7.67;;;2.57;;
3779;SDS011;1905;52.482;9.802;2023-11-22T02:56:25;11.03;;;3.07;;
3779;SDS011;1905;52.482;9.802;2023-11-22T02:58:55;9.13;;;2.57;;
3779;SDS011;1905;52.482;9.802;2023-11-22T03:01:22;8.33;;;3.00;;
3779;SDS011;1905;52.482;9.802;2023-11-22T03:03:52;7.90;;;3.00;;
3779;SDS011;1905;52.482;9.802;2023-11-22T03:06:20;7.87;;;2.47;;
3779;SDS011;1905;52.482;9.802;2023-11-22T03:08:48;9.67;;;3.10;;
3779;SDS011;1905;52.482;9.802;2023-11-22T03:11:15;8.93;;;2.73;;
3779;SDS011;1905;52.482;9.802;2023-11-22T03:13:46;9.03;;;3.30;;
3779;SDS011;1905;52.482;9.802;2023-11-22T03:16:16;7.23;;;2.87;;
3779;SDS011;1905;52.482;9.802;2023-11-22T03:18:45;7.50;;;2.57;;
3779;SDS011;1905;52.482;9.802;2023-11-22T03:21:12;9.27;;;3.20;;
3779;SDS011;1905;52.482;9.802;2023-11-22T03:23:40;9.07;;;3.50;;
3779;SDS011;1905;52.482;9.802;2023-11-22T03:26:08;8.87;;;2.60;;
3779;SDS011;1905;52.482;9.802;2023-11-22T03:28:36;7.23;;;2.90;;
3779;SDS011;1905;52.482;9.802;2023-11-22T03:31:05;10.77;;;3.27;;
3779;SDS011;1905;52.482;9.802;2023-11-22T03:33:35;9.70;;;2.97;;
3779;SDS011;1905;52.482;9.802;2023-11-22T03:36:03;8.00;;;3.20;;
3779;SDS011;1905;52.482;9.802;2023-11-22T03:38:32;8.47;;;2.73;;
3779;SDS011;1905;52.482;9.802;2023-11-22T03:41:00;8.93;;;2.83;;
3779;SDS011;1905;52.482;9.802;2023-11-22T03:43:28;7.93;;;2.80;;
3779;SDS011;1905;52.482;9.802;2023-11-22T03:45:55;10.40;;;3.20;;
3779;SDS011;1905;52.482;9.802;2023-11-22T03:48:23;9.47;;;2.50;;
3779;SDS011;1905;52.482;9.802;2023-11-22T03:50:54;7.20;;;2.27;;
3779;SDS011;1905;52.482;9.802;2023-11-22T03:53:21;8.50;;;2.60;;
3779;SDS011;1905;52.482;9.802;2023-11-22T03:55:49;10.20;;;2.50;;
3779;SDS011;1905;52.482;9.802;2023-11-22T03:58:17;7.80;;;2.60;;
3779;SDS011;1905;52.482;9.802;2023-11-22T04:00:45;7.20;;;2.80;;
3779;SDS011;1905;52.482;9.802;2023-11-22T04:03:13;7.70;;;2.60;;
3779;SDS011;1905;52.482;9.802;2023-11-22T04:05:41;8.77;;;3.73;;
3779;SDS011;1905;52.482;9.802;2023-11-22T04:08:10;7.50;;;2.40;;
3779;SDS011;1905;52.482;9.802;2023-11-22T04:10:37;9.27;;;3.07;;
3779;SDS011;1905;52.482;9.802;2023-11-22T04:13:05;9.30;;;3.00;;
3779;SDS011;1905;52.482;9.802;2023-11-22T04:15:33;8.57;;;3.00;;
3779;SDS011;1905;52.482;9.802;2023-11-22T04:18:01;8.00;;;2.80;;
3779;SDS011;1905;52.482;9.802;2023-11-22T04:20:29;8.67;;;2.73;;
3779;SDS011;1905;52.482;9.802;2023-11-22T04:22:58;7.10;;;2.87;;
3779;SDS011;1905;52.482;9.802;2023-11-22T04:25:27;8.67;;;2.73;;
3779;SDS011;1905;52.482;9.802;2023-11-22T04:27:55;12.10;;;2.90;;
3779;SDS011;1905;52.482;9.802;2023-11-22T04:30:23;8.63;;;2.60;;
3779;SDS011;1905;52.482;9.802;2023-11-22T04:32:50;8.27;;;3.10;;
3779;SDS011;1905;52.482;9.802;2023-11-22T04:35:18;7.50;;;3.33;;
3779;SDS011;1905;52.482;9.802;2023-11-22T04:37:46;6.63;;;2.30;;
3779;SDS011;1905;52.482;9.802;2023-11-22T04:40:14;9.40;;;2.90;;
3779;SDS011;1905;52.482;9.802;2023-11-22T04:42:43;6.50;;;2.60;;
3779;SDS011;1905;52.482;9.802;2023-11-22T04:45:11;8.03;;;2.67;;
3779;SDS011;1905;52.482;9.802;2023-11-22T04:47:39;7.00;;;2.50;;
3779;SDS011;1905;52.482;9.802;2023-11-22T04:50:07;7.53;;;2.80;;
3779;SDS011;1905;52.482;9.802;2023-11-22T04:52:37;7.40;;;2.77;;
3779;SDS011;1905;52.482;9.802;2023-11-22T04:55:05;7.50;;;2.67;;
3779;SDS011;1905;52.482;9.802;2023-11-22T04:57:34;8.50;;;2.80;;
3779;SDS011;1905;52.482;9.802;2023-11-22T05:00:03;7.57;;;2.47;;
3779;SDS011;1905;52.482;9.802;2023-11-22T05:02:33;6.60;;;2.60;;
3779;SDS011;1905;52.482;9.802;2023-11-22T05:05:01;8.73;;;2.83;;
3779;SDS011;1905;52.482;9.802;2023-11-22T05:07:30;7.27;;;2.40;;
3779;SDS011;1905;52.482;9.802;2023-11-22T05:09:57;10.40;;;3.07;;
3779;SDS011;1905;52.482;9.802;2023-11-22T05:12:25;6.73;;;2.67;;
3779;SDS011;1905;52.482;9.802;2023-11-22T05:14:53;7.00;;;2.80;;
3779;SDS011;1905;52.482;9.802;2023-11-22T05:17:22;7.33;;;2.40;;
3779;SDS011;1905;52.482;9.802;2023-11-22T05:19:50;7.20;;;1.97;;
3779;SDS011;1905;52.482;9.802;2023-11-22T05:22:17;7.03;;;2.50;;
3779;SDS011;1905;52.482;9.802;2023-11-22T05:24:45;7.77;;;2.90;;
3779;SDS011;1905;52.482;9.802;2023-11-22T05:27:13;6.57;;;2.10;;
3779;SDS011;1905;52.482;9.802;2023-11-22T05:29:40;7.40;;;2.90;;
3779;SDS011;1905;52.482;9.802;2023-11-22T05:32:21;7.87;;;2.67;;
3779;SDS011;1905;52.482;9.802;2023-11-22T05:34:49;8.67;;;2.77;;
3779;SDS011;1905;52.482;9.802;2023-11-22T05:37:17;8.27;;;2.83;;
3779;SDS011;1905;52.482;9.802;2023-11-22T05:39:45;9.20;;;2.77;;
3779;SDS011;1905;52.482;9.802;2023-11-22T05:42:13;6.93;;;2.17;;
3779;SDS011;1905;52.482;9.802;2023-11-22T05:44:40;7.00;;;2.33;;
3779;SDS011;1905;52.482;9.802;2023-11-22T05:47:08;8.07;;;2.87;;
3779;SDS011;1905;52.482;9.802;2023-11-22T05:49:37;7.13;;;2.47;;
3779;SDS011;1905;52.482;9.802;2023-11-22T05:52:05;8.50;;;2.50;;
3779;SDS011;1905;52.482;9.802;2023-11-22T05:54:33;6.03;;;1.93;;
3779;SDS011;1905;52.482;9.802;2023-11-22T05:57:01;7.63;;;2.33;;
3779;SDS011;1905;52.482;9.802;2023-11-22T05:59:28;8.43;;;2.60;;
3779;SDS011;1905;52.482;9.802;2023-11-22T06:01:56;7.40;;;2.43;;
3779;SDS011;1905;52.482;9.802;2023-11-22T06:04:24;6.80;;;2.20;;
3779;SDS011;1905;52.482;9.802;2023-11-22T06:06:53;7.80;;;2.83;;
3779;SDS011;1905;52.482;9.802;2023-11-22T06:09:21;9.33;;;2.40;;
3779;SDS011;1905;52.482;9.802;2023-11-22T06:11:49;9.83;;;3.00;;
3779;SDS011;1905;52.482;9.802;2023-11-22T06:14:17;8.93;;;2.40;;
3779;SDS011;1905;52.482;9.802;2023-11-22T06:16:45;8.37;;;2.47;;
3779;SDS011;1905;52.482;9.802;2023-11-22T06:19:13;8.00;;;3.17;;
3779;SDS011;1905;52.482;9.802;2023-11-22T06:21:42;7.67;;;3.00;;
3779;SDS011;1905;52.482;9.802;2023-11-22T06:24:11;7.70;;;2.07;;
3779;SDS011;1905;52.482;9.802;2023-11-22T06:26:42;9.17;;;2.80;;
3779;SDS011;1905;52.482;9.802;2023-11-22T06:29:12;8.13;;;2.90;;
3779;SDS011;1905;52.482;9.802;2023-11-22T06:31:41;8.80;;;4.20;;
3779;SDS011;1905;52.482;9.802;2023-11-22T06:34:08;8.07;;;2.80;;
3779;SDS011;1905;52.482;9.802;2023-11-22T06:36:36;7.90;;;2.30;;
3779;SDS011;1905;52.482;9.802;2023-11-22T06:39:04;8.70;;;2.80;;
3779;SDS011;1905;52.482;9.802;2023-11-22T06:41:34;9.23;;;2.70;;
3779;SDS011;1905;52.482;9.802;2023-11-22T06:44:01;7.03;;;2.63;;
3779;SDS011;1905;52.482;9.802;2023-11-22T06:46:29;7.00;;;2.77;;
3779;SDS011;1905;52.482;9.802;2023-11-22T06:48:57;7.73;;;2.50;;
3779;SDS011;1905;52.482;9.802;2023-11-22T06:51:25;7.30;;;2.60;;
3779;SDS011;1905;52.482;9.802;2023-11-22T06:53:53;9.57;;;2.50;;
3779;SDS011;1905;52.482;9.802;2023-11-22T06:56:24;8.27;;;2.90;;
3779;SDS011;1905;52.482;9.802;2023-11-22T06:58:53;8.00;;;3.43;;
3779;SDS011;1905;52.482;9.802;2023-11-22T07:01:22;8.47;;;2.67;;
3779;SDS011;1905;52.482;9.802;2023-11-22T07:03:52;10.53;;;3.37;;
3779;SDS011;1905;52.482;9.802;2023-11-22T07:06:20;9.33;;;3.00;;
3779;SDS011;1905;52.482;9.802;2023-11-22T07:08:48;6.60;;;2.63;;
3779;SDS011;1905;52.482;9.802;2023-11-22T07:11:23;7.20;;;2.93;;
3779;SDS011;1905;52.482;9.802;2023-11-22T07:13:52;7.47;;;2.17;;
3779;SDS011;1905;52.482;9.802;2023-11-22T07:16:21;10.50;;;3.07;;
3779;SDS011;1905;52.482;9.802;2023-11-22T07:18:48;9.20;;;3.50;;
3779;SDS011;1905;52.482;9.802;2023-11-22T07:21:16;8.90;;;3.47;;
3779;SDS011;1905;52.482;9.802;2023-11-22T07:23:44;8.90;;;3.20;;
3779;SDS011;1905;52.482;9.802;2023-11-22T07:26:14;10.60;;;2.47;;
3779;SDS011;1905;52.482;9.802;2023-11-22T07:28:42;9.77;;;4.03;;
3779;SDS011;1905;52.482;9.802;2023-11-22T07:31:12;11.47;;;3.00;;
3779;SDS011;1905;52.482;9.802;2023-11-22T07:33:40;12.77;;;3.17;;
3779;SDS011;1905;52.482;9.802;2023-11-22T07:36:08;8.90;;;3.10;;
3779;SDS011;1905;52.482;9.802;2023-11-22T07:38:36;8.00;;;2.60;;
3779;SDS011;1905;52.482;9.802;2023-11-22T07:41:06;9.37;;;2.60;;
3779;SDS011;1905;52.482;9.802;2023-11-22T07:43:34;9.10;;;3.37;;
3779;SDS011;1905;52.482;9.802;2023-11-22T07:46:04;7.40;;;2.60;;
3779;SDS011;1905;52.482;9.802;2023-11-22T07:48:36;8.20;;;2.80;;
3779;SDS011;1905;52.482;9.802;2023-11-22T07:51:04;8.97;;;3.10;;
3779;SDS011;1905;52.482;9.802;2023-11-22T07:53:33;9.03;;;3.57;;
3779;SDS011;1905;52.482;9.802;2023-11-22T07:56:01;8.27;;;2.90;;
3779;SDS011;1905;52.482;9.802;2023-11-22T07:58:30;7.43;;;2.90;;
3779;SDS011;1905;52.482;9.802;2023-11-22T08:00:58;12.93;;;3.50;;
3779;SDS011;1905;52.482;9.802;2023-11-22T08:03:26;8.60;;;3.30;;
3779;SDS011;1905;52.482;9.802;2023-11-22T08:05:56;10.10;;;3.07;;
3779;SDS011;1905;52.482;9.802;2023-11-22T08:08:24;8.67;;;2.93;;
3779;SDS011;1905;52.482;9.802;2023-11-22T08:10:53;9.97;;;3.10;;
3779;SDS011;1905;52.482;9.802;2023-11-22T08:13:23;7.63;;;3.53;;
3779;SDS011;1905;52.482;9.802;2023-11-22T08:15:50;7.67;;;3.40;;
3779;SDS011;1905;52.482;9.802;2023-11-22T08:18:19;9.40;;;2.40;;
3779;SDS011;1905;52.482;9.802;2023-11-22T08:20:48;10.10;;;2.90;;
3779;SDS011;1905;52.482;9.802;2023-11-22T08:23:18;7.50;;;2.80;;
3779;SDS011;1905;52.482;9.802;2023-11-22T08:25:46;7.60;;;3.20;;
3779;SDS011;1905;52.482;9.802;2023-11-22T08:28:13;7.80;;;3.20;;
3779;SDS011;1905;52.482;9.802;2023-11-22T08:30:41;7.63;;;3.07;;
3779;SDS011;1905;52.482;9.802;2023-11-22T08:33:09;8.37;;;3.20;;
3779;SDS011;1905;52.482;9.802;2023-11-22T08:35:37;9.27;;;3.33;;
3779;SDS011;1905;52.482;9.802;2023-11-22T08:38:05;8.10;;;3.00;;
3779;SDS011;1905;52.482;9.802;2023-11-22T08:40:37;9.40;;;3.30;;
3779;SDS011;1905;52.482;9.802;2023-11-22T08:43:05;9.77;;;3.10;;
3779;SDS011;1905;52.482;9.802;2023-11-22T08:45:32;9.70;;;3.67;;
3779;SDS011;1905;52.482;9.802;2023-11-22T08:48:00;11.60;;;3.67;;
3779;SDS011;1905;52.482;9.802;2023-11-22T08:50:29;8.37;;;3.20;;
3779;SDS011;1905;52.482;9.802;2023-11-22T08:52:58;9.77;;;3.27;;
3779;SDS011;1905;52.482;9.802;2023-11-22T08:55:25;9.73;;;3.47;;
3779;SDS011;1905;52.482;9.802;2023-11-22T08:57:55;10.57;;;3.63;;
3779;SDS011;1905;52.482;9.802;2023-11-22T09:00:22;15.30;;;4.33;;
3779;SDS011;1905;52.482;9.802;2023-11-22T09:02:54;9.00;;;3.30;;
3779;SDS011;1905;52.482;9.802;2023-11-22T09:05:22;8.70;;;3.77;;
3779;SDS011;1905;52.482;9.802;2023-11-22T09:07:50;7.30;;;2.90;;
3779;SDS011;1905;52.482;9.802;2023-11-22T09:10:18;6.80;;;2.90;;
3779;SDS011;1905;52.482;9.802;2023-11-22T09:12:48;8.97;;;3.83;;
3779;SDS011;1905;52.482;9.802;2023-11-22T09:15:17;8.50;;;3.00;;
3779;SDS011;1905;52.482;9.802;2023-11-22T09:17:50;8.70;;;3.00;;
3779;SDS011;1905;52.482;9.802;2023-11-22T09:20:20;8.97;;;3.40;;
3779;SDS011;1905;52.482;9.802;2023-11-22T09:22:48;8.33;;;3.00;;
3779;SDS011;1905;52.482;9.802;2023-11-22T09:25:17;10.33;;;3.97;;
3779;SDS011;1905;52.482;9.802;2023-11-22T09:27:46;8.37;;;2.83;;
3779;SDS011;1905;52.482;9.802;2023-11-22T09:30:16;9.90;;;3.40;;
3779;SDS011;1905;52.482;9.802;2023-11-22T09:32:59;7.50;;;2.93;;
3779;SDS011;1905;52.482;9.802;2023-11-22T09:35:27;11.07;;;3.30;;
3779;SDS011;1905;52.482;9.802;2023-11-22T09:37:57;9.27;;;3.70;;
3779;SDS011;1905;52.482;9.802;2023-11-22T09:40:25;8.43;;;2.90;;
3779;SDS011;1905;52.482;9.802;2023-11-22T09:42:55;9.27;;;3.80;;
3779;SDS011;1905;52.482;9.802;2023-11-22T09:45:25;9.73;;;4.10;;
3779;SDS011;1905;52.482;9.802;2023-11-22T09:47:53;8.50;;;3.27;;
3779;SDS011;1905;52.482;9.802;2023-11-22T09:50:23;10.70;;;3.60;;
3779;SDS011;1905;52.482;9.802;2023-11-22T09:52:59;9.57;;;2.80;;
3779;SDS011;1905;52.482;9.802;2023-11-22T09:55:30;9.70;;;3.53;;
3779;SDS011;1905;52.482;9.802;2023-11-22T09:57:59;10.13;;;3.23;;
3779;SDS011;1905;52.482;9.802;2023-11-22T10:00:29;8.00;;;2.80;;
3779;SDS011;1905;52.482;9.802;2023-11-22T10:02:58;8.70;;;4.10;;
3779;SDS011;1905;52.482;9.802;2023-11-22T10:05:26;12.20;;;2.90;;
3779;SDS011;1905;52.482;9.802;2023-11-22T10:07:55;8.87;;;3.00;;
3779;SDS011;1905;52.482;9.802;2023-11-22T10:10:23;10.93;;;4.17;;
3779;SDS011;1905;52.482;9.802;2023-11-22T10:12:53;10.60;;;3.60;;
3779;SDS011;1905;52.482;9.802;2023-11-22T10:15:23;11.60;;;4.20;;
3779;SDS011;1905;52.482;9.802;2023-11-22T10:17:57;10.43;;;3.30;;
3779;SDS011;1905;52.482;9.802;2023-11-22T10:20:35;9.23;;;2.63;;
3779;SDS011;1905;52.482;9.802;2023-11-22T10:23:07;8.10;;;3.10;;
3779;SDS011;1905;52.482;9.802;2023-11-22T10:25:36;13.60;;;3.07;;
3779;SDS011;1905;52.482;9.802;2023-11-22T10:28:09;8.33;;;3.03;;
3779;SDS011;1905;52.482;9.802;2023-11-22T10:30:37;9.80;;;2.67;;
3779;SDS011;1905;52.482;9.802;2023-11-22T10:33:08;9.97;;;3.00;;
3779;SDS011;1905;52.482;9.802;2023-11-22T10:35:41;16.20;;;3.50;;
3779;SDS011;1905;52.482;9.802;2023-11-22T10:38:09;10.60;;;4.50;;
3779;SDS011;1905;52.482;9.802;2023-11-22T10:40:37;10.47;;;3.23;;
3779;SDS011;1905;52.482;9.802;2023-11-22T10:43:05;10.10;;;3.40;;
3779;SDS011;1905;52.482;9.802;2023-11-22T10:45:36;8.90;;;4.10;;
3779;SDS011;1905;52.482;9.802;2023-11-22T10:48:08;9.77;;;3.03;;
3779;SDS011;1905;52.482;9.802;2023-11-22T10:50:36;13.40;;;4.27;;
3779;SDS011;1905;52.482;9.802;2023-11-22T10:53:04;9.37;;;3.50;;
3779;SDS011;1905;52.482;9.802;2023-11-22T10:55:36;9.10;;;3.30;;
3779;SDS011;1905;52.482;9.802;2023-11-22T10:58:11;8.63;;;3.03;;
3779;SDS011;1905;52.482;9.802;2023-11-22T11:00:42;9.10;;;3.27;;
3779;SDS011;1905;52.482;9.802;2023-11-22T11:03:14;8.90;;;3.73;;
3779;SDS011;1905;52.482;9.802;2023-11-22T11:05:46;13.00;;;4.93;;
3779;SDS011;1905;52.482;9.802;2023-11-22T11:08:18;9.63;;;4.10;;
3779;SDS011;1905;52.482;9.802;2023-11-22T11:10:48;8.70;;;4.07;;
3779;SDS011;1905;52.482;9.802;2023-11-22T11:13:16;11.93;;;4.03;;
3779;SDS011;1905;52.482;9.802;2023-11-22T11:15:45;8.60;;;3.47;;
3779;SDS011;1905;52.482;9.802;2023-11-22T11:18:15;8.37;;;3.67;;
3779;SDS011;1905;52.482;9.802;2023-11-22T11:20:45;8.80;;;2.93;;
3779;SDS011;1905;52.482;9.802;2023-11-22T11:23:16;10.33;;;4.60;;
3779;SDS011;1905;52.482;9.802;2023-11-22T11:25:47;11.90;;;3.33;;
3779;SDS011;1905;52.482;9.802;2023-11-22T11:28:15;9.90;;;4.50;;
3779;SDS011;1905;52.482;9.802;2023-11-22T11:30:44;9.40;;;3.57;;
3779;SDS011;1905;52.482;9.802;2023-11-22T11:33:17;9.20;;;3.50;;
3779;SDS011;1905;52.482;9.802;2023-11-22T11:35:46;8.47;;;3.57;;
3779;SDS011;1905;52.482;9.802;2023-11-22T11:38:16;8.63;;;2.97;;
3779;SDS011;1905;52.482;9.802;2023-11-22T11:40:47;9.47;;;3.77;;
3779;SDS011;1905;52.482;9.802;2023-11-22T11:43:20;9.40;;;2.90;;
3779;SDS011;1905;52.482;9.802;2023-11-22T11:45:48;11.53;;;4.00;;
3779;SDS011;1905;52.482;9.802;2023-11-22T11:48:17;11.27;;;5.40;;
3779;SDS011;1905;52.482;9.802;2023-11-22T11:50:46;8.80;;;3.97;;
3779;SDS011;1905;52.482;9.802;2023-11-22T11:53:18;11.10;;;4.30;;
3779;SDS011;1905;52.482;9.802;2023-11-22T11:55:46;7.83;;;2.70;;
3779;SDS011;1905;52.482;9.802;2023-11-22T11:58:17;8.60;;;3.67;;
3779;SDS011;1905;52.482;9.802;2023-11-22T12:00:44;8.73;;;3.57;;
3779;SDS011;1905;52.482;9.802;2023-11-22T12:03:12;10.20;;;3.13;;
3779;SDS011;1905;52.482;9.802;2023-11-22T12:05:48;9.13;;;3.77;;
3779;SDS011;1905;52.482;9.802;2023-11-22T12:08:16;13.03;;;3.67;;
3779;SDS011;1905;52.482;9.802;2023-11-22T12:10:45;8.80;;;3.10;;
3779;SDS011;1905;52.482;9.802;2023-11-22T12:13:16;12.00;;;3.60;;
3779;SDS011;1905;52.482;9.802;2023-11-22T12:15:44;8.50;;;3.27;;
3779;SDS011;1905;52.482;9.802;2023-11-22T12:18:12;13.10;;;3.93;;
3779;SDS011;1905;52.482;9.802;2023-11-22T12:20:40;7.93;;;3.30;;
3779;SDS011;1905;52.482;9.802;2023-11-22T12:23:10;9.50;;;3.87;;
3779;SDS011;1905;52.482;9.802;2023-11-22T12:25:38;7.77;;;2.80;;
3779;SDS011;1905;52.482;9.802;2023-11-22T12:28:05;10.20;;;4.47;;
3779;SDS011;1905;52.482;9.802;2023-11-22T12:30:34;13.43;;;4.00;;
3779;SDS011;1905;52.482;9.802;2023-11-22T12:33:05;9.10;;;4.30;;
3779;SDS011;1905;52.482;9.802;2023-11-22T12:35:34;11.00;;;3.90;;
3779;SDS011;1905;52.482;9.802;2023-11-22T12:38:04;10.83;;;4.77;;
3779;SDS011;1905;52.482;9.802;2023-11-22T12:40:34;12.53;;;4.50;;
3779;SDS011;1905;52.482;9.802;2023-11-22T12:43:02;10.87;;;4.17;;
3779;SDS011;1905;52.482;9.802;2023-11-22T12:45:32;14.20;;;5.43;;
3779;SDS011;1905;52.482;9.802;2023-11-22T12:48:21;10.10;;;4.13;;
3779;SDS011;1905;52.482;9.802;2023-11-22T12:50:52;22.97;;;4.90;;
3779;SDS011;1905;52.482;9.802;2023-11-22T12:53:20;11.43;;;5.17;;
3779;SDS011;1905;52.482;9.802;2023-11-22T12:55:51;14.70;;;5.70;;
3779;SDS011;1905;52.482;9.802;2023-11-22T12:58:20;12.93;;;4.00;;
3779;SDS011;1905;52.482;9.802;2023-11-22T13:00:50;20.63;;;5.50;;
3779;SDS011;1905;52.482;9.802;2023-11-22T13:03:24;10.17;;;4.50;;
3779;SDS011;1905;52.482;9.802;2023-11-22T13:05:52;17.87;;;4.70;;
3779;SDS011;1905;52.482;9.802;2023-11-22T13:08:21;16.97;;;5.83;;
3779;SDS011;1905;52.482;9.802;2023-11-22T13:10:52;13.80;;;4.60;;
3779;SDS011;1905;52.482;9.802;2023-11-22T13:13:24;13.80;;;4.60;;
3779;SDS011;1905;52.482;9.802;2023-11-22T13:15:53;11.30;;;4.60;;
3779;SDS011;1905;52.482;9.802;2023-11-22T13:18:21;15.77;;;5.13;;
3779;SDS011;1905;52.482;9.802;2023-11-22T13:20:49;21.80;;;5.27;;
3779;SDS011;1905;52.482;9.802;2023-11-22T13:23:17;13.40;;;4.60;;
3779;SDS011;1905;52.482;9.802;2023-11-22T13:25:45;13.20;;;4.43;;
3779;SDS011;1905;52.482;9.802;2023-11-22T13:28:14;14.90;;;4.23;;
3779;SDS011;1905;52.482;9.802;2023-11-22T13:30:43;15.60;;;5.20;;
3779;SDS011;1905;52.482;9.802;2023-11-22T13:33:11;16.60;;;4.67;;
3779;SDS011;1905;52.482;9.802;2023-11-22T13:35:39;16.07;;;4.93;;
3779;SDS011;1905;52.482;9.802;2023-11-22T13:38:07;17.00;;;5.93;;
3779;SDS011;1905;52.482;9.802;2023-11-22T13:40:38;13.27;;;5.80;;
3779;SDS011;1905;52.482;9.802;2023-11-22T13:43:12;13.27;;;6.03;;
3779;SDS011;1905;52.482;9.802;2023-11-22T13:45:41;15.27;;;4.80;;
3779;SDS011;1905;52.482;9.802;2023-11-22T13:48:09;16.17;;;5.63;;
3779;SDS011;1905;52.482;9.802;2023-11-22T13:50:38;14.23;;;4.97;;
3779;SDS011;1905;52.482;9.802;2023-11-22T13:53:05;11.30;;;5.07;;
3779;SDS011;1905;52.482;9.802;2023-11-22T13:55:35;13.83;;;5.57;;
3779;SDS011;1905;52.482;9.802;2023-11-22T13:58:03;10.03;;;4.47;;
3779;SDS011;1905;52.482;9.802;2023-11-22T14:00:32;12.10;;;4.50;;
3779;SDS011;1905;52.482;9.802;2023-11-22T14:03:03;10.87;;;4.07;;
3779;SDS011;1905;52.482;9.802;2023-11-22T14:05:34;14.80;;;5.33;;
3779;SDS011;1905;52.482;9.802;2023-11-22T14:08:05;13.27;;;4.57;;
3779;SDS011;1905;52.482;9.802;2023-11-22T14:10:33;10.13;;;4.53;;
3779;SDS011;1905;52.482;9.802;2023-11-22T14:13:01;8.57;;;4.20;;
3779;SDS011;1905;52.482;9.802;2023-11-22T14:15:30;14.10;;;4.93;;
3779;SDS011;1905;52.482;9.802;2023-11-22T14:17:58;12.00;;;4.33;;
3779;SDS011;1905;52.482;9.802;2023-11-22T14:20:27;11.00;;;4.40;;
3779;SDS011;1905;52.482;9.802;2023-11-22T14:22:56;13.50;;;7.13;;
3779;SDS011;1905;52.482;9.802;2023-11-22T14:25:24;13.53;;;4.73;;
3779;SDS011;1905;52.482;9.802;2023-11-22T14:27:52;11.03;;;4.67;;
3779;SDS011;1905;52.482;9.802;2023-11-22T14:30:22;12.87;;;4.70;;
3779;SDS011;1905;52.482;9.802;2023-11-22T14:32:51;11.80;;;4.57;;
3779;SDS011;1905;52.482;9.802;2023-11-22T14:35:19;12.37;;;4.80;;
3779;SDS011;1905;52.482;9.802;2023-11-22T14:37:48;9.57;;;4.20;;
3779;SDS011;1905;52.482;9.802;2023-11-22T14:40:16;12.67;;;4.63;;
3779;SDS011;1905;52.482;9.802;2023-11-22T14:42:46;10.70;;;4.13;;
3779;SDS011;1905;52.482;9.802;2023-11-22T14:45:16;12.57;;;5.40;;
3779;SDS011;1905;52.482;9.802;2023-11-22T14:47:46;10.33;;;4.50;;
3779;SDS011;1905;52.482;9.802;2023-11-22T14:50:14;11.10;;;5.90;;
3779;SDS011;1905;52.482;9.802;2023-11-22T14:52:42;10.47;;;4.67;;
3779;SDS011;1905;52.482;9.802;2023-11-22T14:55:12;11.10;;;4.70;;
3779;SDS011;1905;52.482;9.802;2023-11-22T14:57:39;13.67;;;5.00;;
3779;SDS011;1905;52.482;9.802;2023-11-22T15:00:08;10.63;;;4.60;;
3779;SDS011;1905;52.482;9.802;2023-11-22T15:02:40;10.67;;;4.80;;
3779;SDS011;1905;52.482;9.802;2023-11-22T15:05:09;8.63;;;3.33;;
3779;SDS011;1905;52.482;9.802;2023-11-22T15:07:39;9.70;;;4.30;;
3779;SDS011;1905;52.482;9.802;2023-11-22T15:10:08;11.50;;;5.23;;
3779;SDS011;1905;52.482;9.802;2023-11-22T15:12:38;12.80;;;4.90;;
3779;SDS011;1905;52.482;9.802;2023-11-22T15:15:08;14.47;;;5.07;;
3779;SDS011;1905;52.482;9.802;2023-11-22T15:17:37;13.67;;;7.97;;
3779;SDS011;1905;52.482;9.802;2023-11-22T15:20:06;11.47;;;4.90;;